WetterOnline ( https://www.wetteronline.ch )

Wetter aktuell Konstanz

Aktuelles Wetter: Konstanz (397m)

6-stündlich | Neueste Meldungen
Ortszeit Temperatur Wetter
Di, 18.02. 19:00 5.8° C bewölkt
Di, 18.02. 13:00 7.9° C bewölkt
Di, 18.02. 7:00 5.0° C wolkig
Di, 18.02. 1:00 5.7° C bewölkt
Mo, 17.02. 19:00 7.7° C leichter Regen
Mo, 17.02. 13:00 13.6° C bewölkt
Mo, 17.02. 7:00 12.2° C wolkig
Mo, 17.02. 1:00 10.5° C wolkig
Ortszeit Temperatur Wetter
Di, 18.02. 20:30 5.7° C bedeckt
Di, 18.02. 20:20 5.7° C bedeckt
Di, 18.02. 20:10 5.8° C bedeckt
Di, 18.02. 20:00 5.9° C bedeckt
Di, 18.02. 19:50 5.9° C bedeckt
Di, 18.02. 19:40 6.0° C bedeckt
Di, 18.02. 19:30 5.9° C bedeckt
Di, 18.02. 19:00 5.8° C bewölkt
Di, 18.02. 18:30 6.1° C leicht bewölkt
Di, 18.02. 18:00 6.7° C wolkenlos
Di, 18.02. 17:30 7.3° C fast wolkenlos
Ortszeit Relative Feuchte Sichtweite
Di, 18.02. 19:00 61% 70 km
Di, 18.02. 13:00 53% 70 km
Di, 18.02. 7:00 74% 70 km
Di, 18.02. 1:00 78% 70 km
Mo, 17.02. 19:00 89% 24 km
Mo, 17.02. 13:00 58% 70 km
Mo, 17.02. 7:00 53% 70 km
Mo, 17.02. 1:00 56% 70 km
Ortszeit Relative Feuchte Sichtweite
Di, 18.02. 20:30 62% 70 km
Di, 18.02. 20:20 62% -
Di, 18.02. 20:10 61% -
Di, 18.02. 20:00 60% 70 km
Di, 18.02. 19:50 60% -
Di, 18.02. 19:40 59% -
Di, 18.02. 19:30 60% 70 km
Di, 18.02. 19:00 61% 70 km
Di, 18.02. 18:30 60% 70 km
Di, 18.02. 18:00 58% 70 km
Di, 18.02. 17:30 56% 70 km
Ortszeit Niederschlagsmenge Niederschlagsart
Di, 18.02. 19:00 0.1 l/m2 in 12 Std. Regen
Di, 18.02. 13:00 0.0 l/m2 in 6 Std. -
Di, 18.02. 7:00 0.5 l/m2 in 12 Std. Regen
Di, 18.02. 1:00 0.5 l/m2 in 6 Std. Regen
Mo, 17.02. 19:00 3 l/m2 in 12 Std. Regen
Mo, 17.02. 13:00 0.0 l/m2 in 6 Std. -
Mo, 17.02. 7:00 0.0 l/m2 in 12 Std. -
Mo, 17.02. 1:00 0.0 l/m2 in 6 Std. -
Ortszeit Niederschlagsmenge Niederschlagsart
Di, 18.02. 20:30 0.0 l/m2 in 1 Std. -
Di, 18.02. 20:20 keine Meldung -
Di, 18.02. 20:10 keine Meldung -
Di, 18.02. 20:00 0.0 l/m2 in 1 Std. -
Di, 18.02. 19:50 keine Meldung -
Di, 18.02. 19:40 keine Meldung -
Di, 18.02. 19:30 0.0 l/m2 in 1 Std. -
Di, 18.02. 19:00 0.0 l/m2 in 1 Std. Regen
Di, 18.02. 18:30 0.0 l/m2 in 1 Std. -
Di, 18.02. 18:00 0.0 l/m2 in 1 Std. -
Di, 18.02. 17:30 0.0 l/m2 in 1 Std. -
Ortszeit Stärke Spitze Richtung
km/h Bft. km/h Grad Sektor
Di, 18.02. 19:00 7 2 36 230° SW
Di, 18.02. 13:00 18 3 40 260° W
Di, 18.02. 7:00 15 3 41 240° SW
Di, 18.02. 1:00 17 3 44 260° W
Mo, 17.02. 19:00 14 3 50 240° SW
Mo, 17.02. 13:00 14 3 32 280° W
Mo, 17.02. 7:00 15 3 31 250° W
Mo, 17.02. 1:00 6 1 35 360° N
Ortszeit Stärke Spitze Richtung
km/h Bft. km/h Grad Sektor
Di, 18.02. 20:30 6 1 13 230° SW
Di, 18.02. 20:20 6 1 - 230° SW
Di, 18.02. 20:10 7 2 - 230° SW
Di, 18.02. 20:00 7 2 14 240° SW
Di, 18.02. 19:50 7 2 - 240° SW
Di, 18.02. 19:40 9 2 - 240° SW
Di, 18.02. 19:30 9 2 15 220° SW
Di, 18.02. 19:00 7 2 18 230° SW
Di, 18.02. 18:30 7 2 17 260° W
Di, 18.02. 18:00 9 2 22 280° W
Di, 18.02. 17:30 11 2 22 260° W
Ortszeit Untergrenze Bedeckung Gattung
total tief tief mittel hoch
Di, 18.02. 19:00 1800 m 7/8 7/8 - - -
Di, 18.02. 13:00 1350 m 7/8 7/8 - - -
Di, 18.02. 7:00 1110 m 6/8 6/8 - - -
Di, 18.02. 1:00 660 m 7/8 7/8 - - -
Mo, 17.02. 19:00 570 m 7/8 7/8 - - -
Mo, 17.02. 13:00 1500 m 7/8 7/8 - - -
Mo, 17.02. 7:00 7200 m 7/8 0/8 - - -
Mo, 17.02. 1:00 6600 m 8/8 2/8 - - -
Ortszeit Bedeckungsgrad in Achtel und Wolkenuntergrenze
Di, 18.02. 20:30 8(1800m)
Di, 18.02. 20:20 8(1800m)
Di, 18.02. 20:10 8(1800m)
Di, 18.02. 20:00 8(1800m)
Di, 18.02. 19:50 8(1800m)
Di, 18.02. 19:40 8(1800m)
Di, 18.02. 19:30 6(1500m) 8(1800m)
Di, 18.02. 19:00 7(1800m)
Di, 18.02. 18:30 2(1800m)
Di, 18.02. 18:00 keine Wolken
Di, 18.02. 17:30 1(1800m)
Ortszeit Luftdruck NN (hPa) Tendenz (hPa in 3 Std.)
Di, 18.02. 19:00 1029 + 0,3
Di, 18.02. 13:00 1030 - 0,5
Di, 18.02. 7:00 1030 + 0,7
Di, 18.02. 1:00 1028 + 2,0
Mo, 17.02. 19:00 1023 + 1,4
Mo, 17.02. 13:00 1019 + 0,3
Mo, 17.02. 7:00 1018 - 0,5
Mo, 17.02. 1:00 1017 + 0,3
Ortszeit Luftdruck NN (hPa) Tendenz (hPa in 3 Std.)
Di, 18.02. 20:30 1029 + 0,6
Di, 18.02. 20:20 1029 keine Meldung
Di, 18.02. 20:10 1029 keine Meldung
Di, 18.02. 20:00 1029 + 0,5
Di, 18.02. 19:50 1029 keine Meldung
Di, 18.02. 19:40 1029 keine Meldung
Di, 18.02. 19:30 1029 + 0,5
Di, 18.02. 19:00 1029 + 0,3
Di, 18.02. 18:30 1029 - 0,2
Di, 18.02. 18:00 1029 - 0,4
Di, 18.02. 17:30 1028 - 1,0
Ortszeit Schneehöhe (cm)
Di, 18.02. 19:00 0
Di, 18.02. 13:00 0
Di, 18.02. 7:00 0
Di, 18.02. 1:00 0
Mo, 17.02. 19:00 0
Mo, 17.02. 13:00 0
Mo, 17.02. 7:00 0
Mo, 17.02. 1:00 0
Ortszeit Schneehöhe (cm)
Di, 18.02. 20:30 0
Di, 18.02. 20:20 0
Di, 18.02. 20:10 0
Di, 18.02. 20:00 0
Di, 18.02. 19:50 0
Di, 18.02. 19:40 0
Di, 18.02. 19:30 0
Di, 18.02. 19:00 0
Di, 18.02. 18:30 0
Di, 18.02. 18:00 0
Di, 18.02. 17:30 0
Link zu dieser Seite / Seite empfehlen

Das Wetter in ...